createdAt,value
2023-02-11T00:02:08.380Z,67.03
2023-02-11T00:04:36.398Z,67.07
2023-02-11T00:07:04.345Z,67.25
2023-02-11T00:09:37.926Z,67.27
2023-02-11T00:12:06.134Z,67.21
2023-02-11T00:14:33.962Z,67.43
2023-02-11T00:17:02.369Z,67.33
2023-02-11T00:19:30.711Z,67.25
2023-02-11T00:21:59.004Z,67.26
2023-02-11T00:24:26.956Z,67.21
2023-02-11T00:26:54.829Z,67.22
2023-02-11T00:29:23.327Z,67.40
2023-02-11T00:31:51.376Z,67.38
2023-02-11T00:34:19.360Z,67.64
2023-02-11T00:36:47.205Z,67.70
2023-02-11T00:39:16.060Z,67.80
2023-02-11T00:41:44.909Z,67.79
2023-02-11T00:44:14.044Z,67.96
2023-02-11T00:46:42.082Z,68.15
2023-02-11T00:49:11.596Z,68.15
2023-02-11T00:51:39.857Z,68.29
2023-02-11T00:54:08.143Z,68.39
2023-02-11T00:56:36.492Z,68.39
2023-02-11T00:59:04.544Z,68.41
2023-02-11T01:01:33.434Z,68.72
2023-02-11T01:04:01.990Z,68.67
2023-02-11T01:06:29.980Z,68.68
2023-02-11T01:08:59.233Z,68.70
2023-02-11T01:11:27.798Z,68.96
2023-02-11T01:13:55.692Z,68.90
2023-02-11T01:16:23.992Z,68.97
2023-02-11T01:18:53.474Z,68.87
2023-02-11T01:21:21.479Z,68.99
2023-02-11T01:23:52.442Z,69.22
2023-02-11T01:26:20.278Z,69.25
2023-02-11T01:28:48.172Z,69.19
2023-02-11T01:31:16.167Z,69.16
2023-02-11T01:33:44.155Z,69.21
2023-02-11T01:36:12.812Z,69.23
2023-02-11T01:38:41.358Z,69.34
2023-02-11T01:41:10.957Z,69.60
2023-02-11T01:43:42.134Z,69.51
2023-02-11T01:46:28.655Z,69.75
2023-02-11T01:49:00.316Z,69.69
2023-02-11T01:51:35.367Z,69.54
2023-02-11T01:54:23.014Z,69.95
2023-02-11T01:57:12.160Z,69.96
2023-02-11T02:00:06.560Z,70.08
2023-02-11T02:02:52.797Z,70.12
2023-02-11T02:05:42.750Z,70.18
2023-02-11T02:08:18.386Z,70.22
2023-02-11T02:10:48.007Z,70.61
2023-02-11T02:13:18.318Z,70.44
2023-02-11T02:15:58.770Z,70.84
2023-02-11T02:18:45.475Z,71.00
2023-02-11T02:21:45.531Z,70.86
2023-02-11T02:24:35.152Z,70.88
2023-02-11T02:27:15.326Z,71.08
2023-02-11T02:30:22.103Z,71.17
2023-02-11T02:33:22.462Z,71.10
2023-02-11T02:35:57.897Z,70.98
2023-02-11T02:38:35.474Z,70.88
2023-02-11T02:41:04.967Z,70.92
2023-02-11T02:43:33.145Z,70.88
2023-02-11T02:46:16.974Z,70.69
2023-02-11T02:48:45.098Z,70.53
2023-02-11T02:51:36.276Z,70.73
2023-02-11T02:54:38.661Z,70.53
2023-02-11T02:57:34.839Z,70.53
2023-02-11T03:00:26.548Z,70.54
2023-02-11T03:03:03.347Z,70.70
2023-02-11T03:05:58.770Z,71.13
2023-02-11T03:08:33.970Z,70.98
2023-02-11T03:11:01.941Z,71.14
2023-02-11T03:13:33.766Z,71.28
2023-02-11T03:16:15.900Z,71.29
2023-02-11T03:18:46.337Z,71.17
2023-02-11T03:21:14.314Z,71.17
2023-02-11T03:23:51.140Z,71.39
2023-02-11T03:26:30.321Z,71.47
2023-02-11T03:29:17.131Z,71.80
2023-02-11T03:31:49.757Z,71.95
2023-02-11T03:34:36.373Z,72.01
2023-02-11T03:37:08.083Z,72.25
2023-02-11T03:39:38.418Z,72.35
2023-02-11T03:42:06.967Z,72.36
2023-02-11T03:44:37.867Z,72.43
2023-02-11T03:47:06.010Z,72.67
2023-02-11T03:49:34.313Z,72.70
2023-02-11T03:52:03.880Z,72.62
2023-02-11T03:54:32.527Z,72.53
2023-02-11T03:57:01.157Z,72.28
2023-02-11T03:59:29.438Z,72.30
2023-02-11T04:01:59.638Z,72.28
2023-02-11T04:04:27.565Z,72.12
2023-02-11T04:06:55.777Z,72.30
2023-02-11T04:09:23.659Z,72.46
2023-02-11T04:11:51.764Z,72.36
2023-02-11T04:14:19.703Z,72.35
2023-02-11T04:16:48.073Z,72.48
2023-02-11T04:19:16.777Z,72.58
2023-02-11T04:21:44.731Z,72.70
2023-02-11T04:24:12.738Z,73.01
2023-02-11T04:26:41.080Z,73.16
2023-02-11T04:29:09.984Z,73.36
2023-02-11T04:31:37.932Z,73.26
2023-02-11T04:34:05.892Z,73.42
2023-02-11T04:36:34.868Z,73.61
2023-02-11T04:39:02.784Z,73.69
2023-02-11T04:41:31.108Z,73.90
2023-02-11T04:43:59.022Z,73.83
2023-02-11T04:46:29.340Z,74.09
2023-02-11T04:48:57.851Z,74.08
2023-02-11T04:51:25.782Z,74.09
2023-02-11T04:53:56.620Z,74.04
2023-02-11T04:56:24.635Z,74.06
2023-02-11T04:58:52.512Z,73.97
2023-02-11T05:01:20.645Z,73.84
2023-02-11T05:03:48.615Z,73.73
2023-02-11T05:06:17.059Z,73.68
2023-02-11T05:08:44.972Z,73.64
2023-02-11T05:11:23.296Z,73.53
2023-02-11T05:13:51.465Z,73.50
2023-02-11T05:16:20.720Z,73.24
2023-02-11T05:18:52.468Z,73.18
2023-02-11T05:21:20.563Z,72.95
2023-02-11T05:23:48.603Z,72.90
2023-02-11T05:26:16.690Z,72.53
2023-02-11T05:28:45.091Z,72.50
2023-02-11T05:31:14.935Z,72.28
2023-02-11T05:33:43.306Z,72.19
2023-02-11T05:36:11.969Z,72.21
2023-02-11T05:38:40.022Z,72.13
2023-02-11T05:41:07.884Z,72.23
2023-02-11T05:43:36.827Z,72.52
2023-02-11T05:46:05.226Z,72.56
2023-02-11T05:48:34.044Z,72.84
2023-02-11T05:51:03.619Z,73.06
2023-02-11T05:53:31.625Z,73.21
2023-02-11T05:55:59.834Z,73.40
2023-02-11T05:58:28.160Z,73.72
2023-02-11T06:00:56.445Z,73.93
2023-02-11T06:03:24.890Z,73.89
2023-02-11T06:05:53.285Z,74.04
2023-02-11T06:08:22.853Z,74.03
2023-02-11T06:10:54.030Z,74.13
2023-02-11T06:13:21.951Z,74.37
2023-02-11T06:16:00.148Z,74.59
2023-02-11T06:18:29.557Z,74.65
2023-02-11T06:20:57.550Z,74.71
2023-02-11T06:23:30.330Z,74.89
2023-02-11T06:26:02.312Z,75.24
2023-02-11T06:28:33.352Z,75.53
2023-02-11T06:31:06.772Z,75.71
2023-02-11T06:33:35.550Z,75.82
2023-02-11T06:36:04.213Z,75.66
2023-02-11T06:38:33.176Z,75.57
2023-02-11T06:41:01.253Z,75.33
2023-02-11T06:43:29.376Z,74.81
2023-02-11T06:45:57.311Z,74.43
2023-02-11T06:48:25.264Z,74.15
2023-02-11T06:50:53.174Z,73.97
2023-02-11T06:53:21.515Z,73.24
2023-02-11T06:55:49.536Z,72.66
2023-02-11T06:58:18.333Z,71.89
2023-02-11T07:00:46.219Z,71.36
2023-02-11T07:03:14.145Z,70.83
2023-02-11T07:05:43.137Z,70.59
2023-02-11T07:08:11.130Z,70.27
2023-02-11T07:10:42.232Z,69.99
2023-02-11T07:13:10.182Z,69.84
2023-02-11T07:15:38.510Z,69.90
2023-02-11T07:18:06.822Z,69.43
2023-02-11T07:20:37.314Z,69.37
2023-02-11T07:23:05.351Z,69.31
2023-02-11T07:25:33.276Z,69.08
2023-02-11T07:28:05.290Z,69.17
2023-02-11T07:30:34.167Z,69.11
2023-02-11T07:33:02.085Z,69.05
2023-02-11T07:35:30.195Z,69.11
2023-02-11T07:37:58.420Z,69.05
2023-02-11T07:40:26.558Z,69.51
2023-02-11T07:42:54.706Z,69.37
2023-02-11T07:45:25.365Z,69.34
2023-02-11T07:47:53.834Z,69.33
2023-02-11T07:50:21.886Z,69.36
2023-02-11T07:52:49.866Z,69.52
2023-02-11T07:55:18.260Z,69.37
2023-02-11T07:57:46.282Z,69.42
2023-02-11T08:00:15.002Z,69.76
2023-02-11T08:02:42.892Z,69.71
2023-02-11T08:05:11.248Z,69.78
2023-02-11T08:07:39.622Z,69.74
2023-02-11T08:10:08.005Z,70.05
2023-02-11T08:12:36.566Z,69.73
2023-02-11T08:15:04.760Z,70.06
2023-02-11T08:17:35.490Z,69.86
2023-02-11T08:20:04.754Z,69.73
2023-02-11T08:22:33.997Z,69.84
2023-02-11T08:25:01.982Z,69.70
2023-02-11T08:27:32.036Z,69.75
2023-02-11T08:30:00.439Z,69.30
2023-02-11T08:32:28.734Z,69.20
2023-02-11T08:34:56.971Z,68.80
2023-02-11T08:37:24.905Z,68.79
2023-02-11T08:39:52.848Z,68.62
2023-02-11T08:42:20.831Z,68.81
2023-02-11T08:44:48.736Z,68.62
2023-02-11T08:47:16.852Z,68.36
2023-02-11T08:49:45.202Z,68.36
2023-02-11T08:52:13.361Z,68.70
2023-02-11T08:54:41.587Z,68.29
2023-02-11T08:57:09.543Z,68.40
2023-02-11T08:59:40.004Z,68.18
2023-02-11T09:02:13.299Z,68.44
2023-02-11T09:04:41.228Z,68.57
2023-02-11T09:07:13.501Z,68.62
2023-02-11T09:09:42.199Z,68.56
2023-02-11T09:12:10.176Z,68.54
2023-02-11T09:14:39.246Z,68.75
2023-02-11T09:17:07.725Z,68.85
2023-02-11T09:19:36.279Z,68.98
2023-02-11T09:22:04.680Z,69.10
2023-02-11T09:24:32.821Z,69.14
2023-02-11T09:27:01.209Z,69.20
2023-02-11T09:29:29.220Z,69.30
2023-02-11T09:31:57.225Z,69.61
2023-02-11T09:34:25.072Z,69.71
2023-02-11T09:36:53.082Z,69.65
2023-02-11T09:39:20.985Z,69.84
2023-02-11T09:41:59.714Z,69.93
2023-02-11T09:44:30.340Z,70.22
2023-02-11T09:47:20.955Z,70.67
2023-02-11T09:49:51.341Z,70.84
2023-02-11T09:52:37.933Z,71.08
2023-02-11T09:55:15.274Z,71.34
2023-02-11T09:57:43.557Z,71.09
2023-02-11T10:00:23.472Z,71.46
2023-02-11T10:03:01.175Z,71.80
2023-02-11T10:05:58.273Z,71.85
2023-02-11T10:08:42.901Z,71.62
2023-02-11T10:11:56.534Z,71.77
2023-02-11T10:14:28.545Z,71.91
2023-02-11T10:17:34.423Z,72.20
2023-02-11T10:20:23.815Z,71.80
2023-02-11T10:22:57.300Z,72.07
2023-02-11T10:25:39.601Z,71.87
2023-02-11T10:28:32.234Z,71.65
2023-02-11T10:31:13.771Z,71.73
2023-02-11T10:33:58.836Z,71.62
2023-02-11T10:36:33.429Z,71.27
2023-02-11T10:39:11.876Z,71.21
2023-02-11T10:41:44.760Z,70.67
2023-02-11T10:44:28.238Z,70.58
2023-02-11T10:46:56.420Z,70.22
2023-02-11T10:49:54.099Z,70.22
2023-02-11T10:52:27.078Z,70.35
2023-02-11T10:55:01.440Z,70.21
2023-02-11T10:57:33.907Z,70.26
2023-02-11T11:00:08.608Z,70.40
2023-02-11T11:02:38.753Z,70.51
2023-02-11T11:05:16.352Z,70.51
2023-02-11T11:09:30.816Z,70.63
2023-02-11T11:11:58.634Z,70.54
2023-02-11T11:14:29.116Z,70.56
2023-02-11T11:16:57.263Z,70.54
2023-02-11T11:19:26.038Z,70.54
2023-02-11T11:21:54.938Z,70.62
2023-02-11T11:24:46.823Z,70.76
2023-02-11T11:27:19.671Z,71.04
2023-02-11T11:29:50.020Z,71.15
2023-02-11T11:32:26.233Z,71.11
2023-02-11T11:34:55.935Z,71.12
2023-02-11T11:37:27.024Z,71.48
2023-02-11T11:40:25.270Z,71.62
2023-02-11T11:43:23.037Z,72.20
2023-02-11T11:45:58.809Z,72.52
2023-02-11T11:48:32.958Z,72.71
2023-02-11T11:51:02.992Z,73.06
2023-02-11T11:54:00.493Z,73.09
2023-02-11T11:56:30.740Z,73.18
2023-02-11T11:59:00.935Z,73.49
2023-02-11T12:01:47.989Z,73.86
2023-02-11T12:04:37.908Z,74.04
2023-02-11T12:07:15.217Z,74.18
2023-02-11T12:10:04.764Z,74.16
2023-02-11T12:13:05.489Z,73.73
2023-02-11T12:15:58.784Z,73.34
2023-02-11T12:18:47.627Z,72.35
2023-02-11T12:21:39.058Z,71.48
2023-02-11T12:24:31.929Z,71.07
2023-02-11T12:27:27.127Z,71.05
2023-02-11T12:30:16.531Z,70.62
2023-02-11T12:33:04.891Z,70.47
2023-02-11T12:36:04.026Z,70.36
2023-02-11T12:38:43.094Z,70.34
2023-02-11T12:41:39.998Z,70.05
2023-02-11T12:44:11.406Z,69.75
2023-02-11T12:47:02.850Z,69.50
2023-02-11T12:49:43.010Z,69.56
2023-02-11T12:52:39.181Z,69.54
2023-02-11T12:55:20.749Z,69.64
2023-02-11T12:57:49.207Z,69.83
2023-02-11T13:00:22.920Z,69.61
2023-02-11T13:02:54.575Z,69.53
2023-02-11T13:05:49.721Z,69.35
2023-02-11T13:08:21.398Z,69.08
2023-02-11T13:10:54.106Z,68.68
2023-02-11T13:13:25.674Z,68.56
2023-02-11T13:16:09.489Z,68.36
2023-02-11T13:19:13.407Z,68.00
2023-02-11T13:22:05.978Z,67.95
2023-02-11T13:24:40.067Z,67.67
2023-02-11T13:27:28.991Z,67.16
2023-02-11T13:30:36.881Z,67.15
2023-02-11T13:33:06.825Z,66.63
2023-02-11T13:35:35.639Z,66.17
2023-02-11T13:38:16.448Z,65.92
2023-02-11T13:40:44.373Z,65.71
2023-02-11T13:43:21.796Z,65.40
2023-02-11T13:45:50.548Z,65.64
2023-02-11T13:48:27.187Z,65.72
2023-02-11T13:50:58.185Z,65.79
2023-02-11T13:53:27.912Z,65.89
2023-02-11T13:56:11.362Z,66.09
2023-02-11T13:58:49.567Z,66.33
2023-02-11T14:02:05.841Z,66.24
2023-02-11T14:04:53.384Z,66.23
2023-02-11T14:07:50.951Z,66.15
2023-02-11T14:10:41.114Z,65.99
2023-02-11T14:13:31.027Z,66.10
2023-02-11T14:16:36.863Z,65.94
2023-02-11T14:19:06.794Z,66.01
2023-02-11T14:21:38.784Z,65.64
2023-02-11T14:24:13.142Z,65.29
2023-02-11T14:26:47.048Z,65.36
2023-02-11T14:29:20.119Z,65.22
2023-02-11T14:31:51.512Z,65.02
2023-02-11T14:34:28.276Z,65.08
2023-02-11T14:37:14.161Z,64.91
2023-02-11T14:39:54.780Z,64.95
2023-02-11T14:42:26.917Z,64.59
2023-02-11T14:45:04.101Z,64.85
2023-02-11T14:47:58.692Z,64.91
2023-02-11T14:50:32.026Z,64.87
2023-02-11T14:53:01.164Z,64.69
2023-02-11T14:55:38.047Z,64.62
2023-02-11T14:58:29.655Z,64.76
2023-02-11T15:01:29.828Z,64.61
2023-02-11T15:04:00.548Z,64.32
2023-02-11T15:06:28.895Z,64.35
2023-02-11T15:09:01.016Z,64.31
2023-02-11T15:11:39.859Z,64.30
2023-02-11T15:14:18.870Z,64.33
2023-02-11T15:16:46.799Z,64.20
2023-02-11T15:19:34.674Z,64.28
2023-02-11T15:22:06.818Z,64.04
2023-02-11T15:24:35.589Z,63.71
2023-02-11T15:27:15.542Z,63.78
2023-02-11T15:29:45.365Z,63.77
2023-02-11T15:32:17.023Z,63.58
2023-02-11T15:34:45.869Z,63.59
2023-02-11T15:37:27.466Z,63.49
2023-02-11T15:39:56.027Z,63.47
2023-02-11T15:42:40.759Z,63.18
2023-02-11T15:45:15.395Z,63.14
2023-02-11T15:47:52.004Z,63.22
2023-02-11T15:50:31.257Z,63.12
2023-02-11T15:53:01.179Z,63.30
2023-02-11T15:55:29.192Z,62.94
2023-02-11T15:58:00.292Z,63.29
2023-02-11T16:00:34.585Z,62.75
2023-02-11T16:03:02.572Z,62.76
2023-02-11T16:05:35.757Z,62.90
2023-02-11T16:08:22.010Z,62.62
2023-02-11T16:11:08.665Z,62.90
2023-02-11T16:13:46.819Z,62.79
2023-02-11T16:16:25.653Z,62.74
2023-02-11T16:19:04.581Z,62.54
2023-02-11T16:21:39.007Z,62.78
2023-02-11T16:24:07.497Z,62.29
2023-02-11T16:26:41.041Z,62.04
2023-02-11T16:29:16.881Z,61.99
2023-02-11T16:31:46.888Z,62.23
2023-02-11T16:34:23.312Z,61.79
2023-02-11T16:36:52.146Z,61.68
2023-02-11T16:39:24.580Z,61.69
2023-02-11T16:41:52.752Z,61.82
2023-02-11T16:44:21.795Z,61.59
2023-02-11T16:46:51.980Z,61.30
2023-02-11T16:49:24.659Z,61.38
2023-02-11T16:51:54.022Z,61.36
2023-02-11T16:54:23.511Z,61.33
2023-02-11T16:56:51.368Z,60.97
2023-02-11T16:59:21.367Z,61.12
2023-02-11T17:01:49.668Z,61.00
2023-02-11T17:04:24.082Z,61.05
2023-02-11T17:06:55.996Z,61.09
2023-02-11T17:09:30.134Z,61.25
2023-02-11T17:12:01.785Z,61.04
2023-02-11T17:14:30.131Z,61.16
2023-02-11T17:16:58.250Z,61.16
2023-02-11T17:19:26.148Z,61.12
2023-02-11T17:21:54.265Z,61.13
2023-02-11T17:24:22.870Z,61.17
2023-02-11T17:26:50.882Z,61.07
2023-02-11T17:29:22.436Z,61.19
2023-02-11T17:31:52.007Z,61.18
2023-02-11T17:34:21.201Z,61.05
2023-02-11T17:36:49.384Z,61.31
2023-02-11T17:39:17.548Z,61.19
2023-02-11T17:41:46.648Z,61.38
2023-02-11T17:44:16.601Z,61.41
2023-02-11T17:46:45.142Z,61.25
2023-02-11T17:49:16.594Z,61.64
2023-02-11T17:51:50.107Z,61.61
2023-02-11T17:54:18.784Z,61.78
2023-02-11T17:56:49.286Z,61.71
2023-02-11T17:59:19.471Z,61.76
2023-02-11T18:01:47.472Z,61.69
2023-02-11T18:04:17.604Z,61.56
2023-02-11T18:06:45.542Z,61.84
2023-02-11T18:09:13.423Z,61.72
2023-02-11T18:11:41.292Z,61.63
2023-02-11T18:14:10.372Z,62.04
2023-02-11T18:16:43.113Z,61.92
2023-02-11T18:19:11.544Z,61.90
2023-02-11T18:21:39.551Z,61.99
2023-02-11T18:24:07.453Z,61.81
2023-02-11T18:26:35.498Z,61.88
2023-02-11T18:29:03.962Z,62.04
2023-02-11T18:31:31.986Z,62.08
2023-02-11T18:34:00.003Z,61.94
2023-02-11T18:36:28.385Z,62.25
2023-02-11T18:38:58.228Z,62.21
2023-02-11T18:41:29.846Z,62.35
2023-02-11T18:43:58.733Z,62.26
2023-02-11T18:46:26.769Z,62.09
2023-02-11T18:48:56.227Z,62.07
2023-02-11T18:51:24.608Z,62.16
2023-02-11T18:53:54.621Z,62.25
2023-02-11T18:56:23.673Z,62.41
2023-02-11T18:58:52.181Z,62.66
2023-02-11T19:01:24.210Z,62.84
2023-02-11T19:03:58.096Z,63.20
2023-02-11T19:06:27.429Z,63.40
2023-02-11T19:09:04.233Z,63.66
2023-02-11T19:11:49.937Z,63.85
2023-02-11T19:14:20.432Z,64.11
2023-02-11T19:16:50.771Z,64.46
2023-02-11T19:19:19.057Z,64.51
2023-02-11T19:21:48.945Z,64.60
2023-02-11T19:24:19.844Z,65.01
2023-02-11T19:26:48.565Z,65.19
2023-02-11T19:29:16.901Z,65.30
2023-02-11T19:31:45.131Z,65.33
2023-02-11T19:34:15.035Z,65.68
2023-02-11T19:36:43.302Z,66.04
2023-02-11T19:39:11.411Z,66.14
2023-02-11T19:41:39.570Z,66.51
2023-02-11T19:44:07.904Z,66.82
2023-02-11T19:46:37.571Z,67.40
2023-02-11T19:49:05.655Z,67.85
2023-02-11T19:51:37.462Z,67.97
2023-02-11T19:54:06.380Z,68.31
2023-02-11T19:56:34.356Z,68.51
2023-02-11T19:59:02.883Z,68.63
2023-02-11T20:01:31.060Z,69.04
2023-02-11T20:03:59.052Z,69.17
2023-02-11T20:06:28.679Z,69.26
2023-02-11T20:09:06.542Z,69.39
2023-02-11T20:11:34.861Z,69.47
2023-02-11T20:14:03.700Z,69.59
2023-02-11T20:16:46.900Z,69.37
2023-02-11T20:19:21.977Z,69.49
2023-02-11T20:21:53.781Z,69.70
2023-02-11T20:24:23.575Z,69.66
2023-02-11T20:26:55.959Z,69.58
2023-02-11T20:29:24.465Z,69.64
2023-02-11T20:31:52.917Z,69.89
2023-02-11T20:34:22.106Z,70.06
2023-02-11T20:36:53.535Z,70.29
2023-02-11T20:39:22.669Z,70.40
2023-02-11T20:41:51.422Z,70.73
2023-02-11T20:44:21.859Z,71.02
2023-02-11T20:46:50.240Z,71.15
2023-02-11T20:49:19.973Z,71.46
2023-02-11T20:51:49.373Z,71.52
2023-02-11T20:54:18.993Z,71.78
2023-02-11T20:56:51.257Z,72.15
2023-02-11T20:59:19.789Z,72.33
2023-02-11T21:01:53.485Z,72.65
2023-02-11T21:04:26.227Z,73.00
2023-02-11T21:06:56.082Z,73.29
2023-02-11T21:09:25.732Z,73.60
2023-02-11T21:11:57.037Z,74.27
2023-02-11T21:14:25.710Z,74.45
2023-02-11T21:16:53.592Z,75.02
2023-02-11T21:19:21.613Z,75.37
2023-02-11T21:21:49.938Z,75.67
2023-02-11T21:24:18.050Z,75.84
2023-02-11T21:26:48.981Z,76.50
2023-02-11T21:29:17.068Z,76.83
2023-02-11T21:31:45.098Z,76.80
2023-02-11T21:34:17.270Z,77.30
2023-02-11T21:36:45.459Z,77.71
2023-02-11T21:39:13.974Z,77.75
2023-02-11T21:41:41.862Z,78.27
2023-02-11T21:44:12.084Z,78.35
2023-02-11T21:46:40.336Z,79.19
2023-02-11T21:49:11.657Z,79.60
2023-02-11T21:51:39.666Z,80.06
2023-02-11T21:54:07.582Z,80.08
2023-02-11T21:56:36.652Z,80.67
2023-02-11T21:59:04.592Z,80.83
2023-02-11T22:01:33.253Z,80.97
2023-02-11T22:04:01.310Z,81.22
2023-02-11T22:06:31.428Z,81.79
2023-02-11T22:09:02.092Z,82.02
2023-02-11T22:11:32.719Z,82.50
2023-02-11T22:14:00.810Z,82.49
2023-02-11T22:16:30.715Z,82.75
2023-02-11T22:18:59.281Z,83.17
2023-02-11T22:21:28.059Z,83.28
2023-02-11T22:23:56.073Z,83.47
2023-02-11T22:26:26.502Z,83.83
2023-02-11T22:28:55.045Z,83.95
2023-02-11T22:31:28.478Z,83.96
2023-02-11T22:33:56.916Z,84.37
2023-02-11T22:36:29.743Z,84.68
2023-02-11T22:39:05.178Z,85.20
2023-02-11T22:41:33.399Z,85.38
2023-02-11T22:44:01.680Z,85.87
2023-02-11T22:46:29.865Z,86.04
2023-02-11T22:49:00.462Z,86.11
2023-02-11T22:51:29.380Z,86.39
2023-02-11T22:53:59.114Z,86.41
2023-02-11T22:56:27.825Z,86.60
2023-02-11T22:59:03.388Z,86.78
2023-02-11T23:01:31.759Z,87.06
2023-02-11T23:04:01.170Z,87.41
2023-02-11T23:06:29.237Z,87.17
2023-02-11T23:08:57.324Z,87.48
2023-02-11T23:11:29.139Z,87.45
2023-02-11T23:13:59.148Z,87.87
2023-02-11T23:16:29.141Z,87.83
2023-02-11T23:18:59.352Z,88.05
2023-02-11T23:21:29.470Z,87.89
2023-02-11T23:24:03.482Z,87.83
2023-02-11T23:28:12.458Z,88.21
2023-02-11T23:30:41.613Z,88.19
2023-02-11T23:33:09.793Z,88.11
2023-02-11T23:35:37.704Z,88.08
2023-02-11T23:38:05.694Z,88.22
2023-02-11T23:40:33.663Z,88.17
2023-02-11T23:43:01.646Z,88.19
2023-02-11T23:45:29.599Z,88.21
2023-02-11T23:47:57.498Z,88.27
2023-02-11T23:50:26.220Z,88.57
2023-02-11T23:52:54.206Z,88.48
2023-02-11T23:55:22.263Z,88.69
2023-02-11T23:57:50.234Z,89.03
